Albany, GA (31707)

7:17 PM EDT on August 24, 2016 (GMT -0400)
Grand Island Club | | Change Station

Elev 266 ft 31.62 °N, 84.21 °W | Updated 1 minute ago

Partly Cloudy
Partly Cloudy
89.1 °F
Feels Like 96 °F
N
3.0
Wind Variable Wind from ESE
Gusts 6.0 mph

Today
High -- | Low -- °F
--% Chance of Precip.
Yesterday
High -- | Low -- °F
Precip. -- in
Pressure 30.13 in
Visibility 10.0 miles
Clouds Few 6500 ft
Heat Index 96 °F
Dew Point 71 °F
Humidity 56%
Rainfall 0.00 in
Snow Depth Not available.
7:08 AM 8:09 PM
Waning Gibbous, 52% visible
METAR KABY 242253Z 11005KT 10SM FEW065 33/20 A3014 RMK AO2 SLP203 T03280200
Pressure 30.13 in
Visibility 10.0 miles
Clouds Few 6500 ft
Heat Index 96 °F
Dew Point 71 °F
Humidity 56%
Rainfall 0.00 in
Snow Depth Not available.
7:08 AM 8:09 PM
Waning Gibbous, 52% visible
METAR KABY 242253Z 11005KT 10SM FEW065 33/20 A3014 RMK AO2 SLP203 T03280200
A tropical disturbance we've monitored since last week, may have a dangerous future in store for the southeast U.S. and Gulf coasts this weekend into next week. The National Weather Service has issued a flash flood watch for Puerto Rico and the U.S. Virgin Islands. Rainfall totals of 2-4 inches (locally higher) are expected through Wednesday night in those areas.

The National Hurricane Center says this system has a medium to high chance of development into a tropical depression or tropical storm over the next 2 to 5 days. A tight consensus of our guidance suggests the disturbance should continue in a general west or west-northwest trajectory the next several days.

10-Day Weather Forecast

Almanac

Astronomy

Aug. 24, 2016 Rise Set
Actual Time
Civil Twilight
Nautical Twilight
Astronomical Twilight
Moon
Length of Visible Light
Length of Day
Tomorrow will be .
, % of the Moon is Illuminated

Today's Extremes

State Highs State Lows

Community

WunderPhotos

Upload Photos

1,934,731 photos uploaded!

WunderBlog® & News

Nearby

Air Quality

  Air Quality AQ Index Pollutant
Not available.

Snow Depth

Station Depth Elevation

Earthquake Activity

City Distance Mag. Time & Date
Minimum magnitude displayed is 2.5.

Coastal Water Temperatures

Place Temperature

Stations

Nearby Weather Stations

Station Location Temp. Windchill Dew Point Humidity Wind Precip. Elev Updated Type
                   

Watches & Warnings

There are currently no watches in effect.